createdAt,value
2022-10-23T00:01:44.882Z,96056.36
2022-10-23T00:04:14.822Z,96051.88
2022-10-23T00:06:43.706Z,96048.02
2022-10-23T00:09:13.516Z,96049.11
2022-10-23T00:11:42.298Z,96056.08
2022-10-23T00:14:11.231Z,96049.60
2022-10-23T00:16:39.304Z,96049.24
2022-10-23T00:19:07.506Z,96045.37
2022-10-23T00:21:35.733Z,96048.83
2022-10-23T00:24:03.819Z,96057.45
2022-10-23T00:26:31.875Z,96057.59
2022-10-23T00:28:59.733Z,96061.31
2022-10-23T00:31:27.744Z,96062.64
2022-10-23T00:33:55.683Z,96063.42
2022-10-23T00:36:23.637Z,96075.96
2022-10-23T00:38:51.686Z,96077.21
2022-10-23T00:41:32.259Z,96074.45
2022-10-23T00:44:27.237Z,96085.56
2022-10-23T00:46:59.427Z,96081.94
2022-10-23T00:49:28.435Z,96082.63
2022-10-23T00:52:01.319Z,96087.79
2022-10-23T00:54:33.956Z,96089.73
2022-10-23T00:57:05.624Z,96094.14
2022-10-23T00:59:34.348Z,96097.50
2022-10-23T01:02:02.612Z,96104.92
2022-10-23T01:04:31.403Z,96105.25
2022-10-23T01:07:14.359Z,96103.61
2022-10-23T01:10:10.700Z,96108.27
2022-10-23T01:12:57.447Z,96112.85
2022-10-23T01:15:40.592Z,96120.77
2022-10-23T01:18:43.145Z,96123.23
2022-10-23T01:21:28.043Z,96133.95
2022-10-23T01:24:21.023Z,96140.30
2022-10-23T01:27:00.769Z,96142.81
2022-10-23T01:29:52.939Z,96141.74
2022-10-23T01:32:25.388Z,96146.52
2022-10-23T01:35:03.473Z,96149.85
2022-10-23T01:37:40.101Z,96154.75
2022-10-23T01:40:21.957Z,96156.02
2022-10-23T01:42:55.281Z,96155.85
2022-10-23T01:45:45.938Z,96155.83
2022-10-23T01:48:22.496Z,96156.55
2022-10-23T01:50:52.879Z,96161.34
2022-10-23T01:53:22.232Z,96160.63
2022-10-23T01:55:51.210Z,96160.73
2022-10-23T01:58:26.533Z,96162.48
2022-10-23T02:02:09.249Z,96161.27
2022-10-23T02:04:42.353Z,96171.52
2022-10-23T02:07:10.444Z,96176.02
2022-10-23T02:09:38.937Z,96175.11
2022-10-23T02:12:08.857Z,96178.66
2022-10-23T02:14:59.244Z,96174.13
2022-10-23T02:17:52.237Z,96172.94
2022-10-23T02:20:30.496Z,96178.13
2022-10-23T02:23:29.226Z,96181.36
2022-10-23T02:26:09.691Z,96183.98
2022-10-23T02:28:45.912Z,96186.99
2022-10-23T02:31:18.812Z,96190.83
2022-10-23T02:33:47.450Z,96189.79
2022-10-23T02:36:19.929Z,96196.00
2022-10-23T02:38:48.343Z,96197.59
2022-10-23T02:41:31.189Z,96202.11
2022-10-23T02:44:25.528Z,96208.20
2022-10-23T02:47:24.680Z,96214.50
2022-10-23T02:50:05.614Z,96218.98
2022-10-23T02:52:52.437Z,96219.40
2022-10-23T02:55:23.525Z,96229.08
2022-10-23T02:57:57.935Z,96231.83
2022-10-23T03:00:29.866Z,96239.66
2022-10-23T03:03:06.869Z,96240.68
2022-10-23T03:05:38.889Z,96245.21
2022-10-23T03:08:10.088Z,96250.20
2022-10-23T03:10:38.266Z,96255.91
2022-10-23T03:13:07.668Z,96260.07
2022-10-23T03:15:41.727Z,96262.88
2022-10-23T03:18:12.992Z,96260.67
2022-10-23T03:20:41.777Z,96262.52
2022-10-23T03:23:12.981Z,96260.78
2022-10-23T03:25:41.084Z,96263.61
2022-10-23T03:28:09.149Z,96266.89
2022-10-23T03:30:37.169Z,96272.06
2022-10-23T03:33:05.125Z,96271.48
2022-10-23T03:35:37.445Z,96271.58
2022-10-23T03:38:05.817Z,96279.33
2022-10-23T03:40:33.759Z,96282.98
2022-10-23T03:43:01.772Z,96281.98
2022-10-23T03:45:31.097Z,96289.31
2022-10-23T03:47:59.024Z,96295.70
2022-10-23T03:50:26.992Z,96295.36
2022-10-23T03:52:57.401Z,96298.63
2022-10-23T03:55:27.207Z,96301.16
2022-10-23T03:57:55.475Z,96298.34
2022-10-23T04:00:23.791Z,96304.13
2022-10-23T04:02:51.819Z,96304.27
2022-10-23T04:05:20.353Z,96304.02
2022-10-23T04:07:57.348Z,96307.16
2022-10-23T04:10:28.343Z,96309.41
2022-10-23T04:12:56.714Z,96305.08
2022-10-23T04:15:24.654Z,96309.95
2022-10-23T04:17:52.594Z,96312.84
2022-10-23T04:20:22.895Z,96314.24
2022-10-23T04:22:52.300Z,96318.81
2022-10-23T04:25:20.239Z,96322.01
2022-10-23T04:27:48.659Z,96321.58
2022-10-23T04:30:16.511Z,96324.10
2022-10-23T04:32:46.356Z,96327.35
2022-10-23T04:35:14.409Z,96323.41
2022-10-23T04:37:42.814Z,96324.29
2022-10-23T04:40:11.110Z,96324.27
2022-10-23T04:42:39.611Z,96326.52
2022-10-23T04:45:07.989Z,96331.30
2022-10-23T04:47:36.878Z,96333.00
2022-10-23T04:50:06.117Z,96337.21
2022-10-23T04:52:58.344Z,96341.23
2022-10-23T04:55:53.131Z,96343.47
2022-10-23T04:58:29.377Z,96345.75
2022-10-23T05:00:58.921Z,96347.67
2022-10-23T05:03:27.741Z,96352.27
2022-10-23T05:05:56.760Z,96355.50
2022-10-23T05:08:44.886Z,96356.03
2022-10-23T05:11:37.032Z,96361.20
2022-10-23T05:14:08.220Z,96364.99
2022-10-23T05:16:43.373Z,96367.45
2022-10-23T05:19:20.690Z,96368.79
2022-10-23T05:21:55.859Z,96370.20
2022-10-23T05:24:27.574Z,96374.64
2022-10-23T05:26:59.221Z,96379.89
2022-10-23T05:29:27.117Z,96381.77
2022-10-23T05:32:01.674Z,96387.17
2022-10-23T05:34:35.523Z,96393.11
2022-10-23T05:37:06.270Z,96394.84
2022-10-23T05:39:37.808Z,96395.19
2022-10-23T05:42:09.741Z,96400.48
2022-10-23T05:44:38.883Z,96400.12
2022-10-23T05:47:09.504Z,96401.99
2022-10-23T05:49:56.449Z,96405.25
2022-10-23T05:52:50.912Z,96405.31
2022-10-23T05:55:32.383Z,96411.08
2022-10-23T05:58:11.208Z,96415.77
2022-10-23T06:01:13.868Z,96420.23
2022-10-23T06:04:02.346Z,96428.65
2022-10-23T06:06:54.857Z,96432.86
2022-10-23T06:09:22.737Z,96433.80
2022-10-23T06:11:51.302Z,96435.33
2022-10-23T06:14:22.100Z,96437.20
2022-10-23T06:16:51.283Z,96444.08
2022-10-23T06:19:19.611Z,96446.95
2022-10-23T06:21:47.925Z,96450.95
2022-10-23T06:24:16.094Z,96454.17
2022-10-23T06:26:49.624Z,96456.95
2022-10-23T06:29:22.295Z,96459.70
2022-10-23T06:31:51.101Z,96461.77
2022-10-23T06:34:19.112Z,96463.65
2022-10-23T06:36:47.315Z,96463.52
2022-10-23T06:39:33.801Z,96468.02
2022-10-23T06:42:25.223Z,96470.39
2022-10-23T06:44:53.229Z,96471.05
2022-10-23T06:47:44.498Z,96475.10
2022-10-23T06:50:15.373Z,96475.84
2022-10-23T06:52:47.323Z,96476.65
2022-10-23T06:55:18.231Z,96480.02
2022-10-23T06:57:47.352Z,96484.30
2022-10-23T07:00:15.757Z,96485.81
2022-10-23T07:02:51.178Z,96488.96
2022-10-23T07:05:20.277Z,96491.40
2022-10-23T07:07:48.725Z,96491.61
2022-10-23T07:10:21.739Z,96499.71
2022-10-23T07:13:01.373Z,96501.38
2022-10-23T07:15:39.051Z,96506.17
2022-10-23T07:18:14.638Z,96507.27
2022-10-23T07:21:01.447Z,96506.77
2022-10-23T07:23:30.337Z,96506.19
2022-10-23T07:26:16.962Z,96504.15
2022-10-23T07:28:47.571Z,96501.77
2022-10-23T07:31:18.498Z,96497.59
2022-10-23T07:34:06.242Z,96496.19
2022-10-23T07:36:34.156Z,96499.63
2022-10-23T07:39:02.427Z,96504.73
2022-10-23T07:41:41.889Z,96506.27
2022-10-23T07:44:10.099Z,96506.31
2022-10-23T07:46:38.284Z,96511.97
2022-10-23T07:49:11.167Z,96513.33
2022-10-23T07:51:39.568Z,96515.98
2022-10-23T07:54:12.979Z,96520.98
2022-10-23T07:57:00.459Z,96523.87
2022-10-23T07:59:39.128Z,96523.98
2022-10-23T08:02:15.777Z,96528.38
2022-10-23T08:04:44.128Z,96533.13
2022-10-23T08:07:35.579Z,96530.97
2022-10-23T08:10:03.859Z,96532.10
2022-10-23T08:12:32.408Z,96532.81
2022-10-23T08:15:00.404Z,96531.91
2022-10-23T08:17:34.214Z,96537.38
2022-10-23T08:20:14.896Z,96539.11
2022-10-23T08:22:43.971Z,96539.25
2022-10-23T08:25:12.241Z,96539.89
2022-10-23T08:27:40.287Z,96547.52
2022-10-23T08:30:09.475Z,96549.64
2022-10-23T08:32:42.170Z,96550.11
2022-10-23T08:35:10.162Z,96553.08
2022-10-23T08:37:38.177Z,96552.52
2022-10-23T08:40:06.920Z,96552.33
2022-10-23T08:43:03.387Z,96554.03
2022-10-23T08:45:35.744Z,96552.30
2022-10-23T08:48:44.708Z,96552.54
2022-10-23T08:51:42.540Z,96553.02
2022-10-23T08:54:30.246Z,96552.64
2022-10-23T08:57:04.069Z,96556.79
2022-10-23T08:59:48.683Z,96559.50
2022-10-23T09:02:26.711Z,96561.85
2022-10-23T09:04:57.535Z,96564.77
2022-10-23T09:07:47.199Z,96560.91
2022-10-23T09:10:21.505Z,96563.55
2022-10-23T09:12:49.500Z,96565.25
2022-10-23T09:15:28.552Z,96569.55
2022-10-23T09:18:00.464Z,96571.42
2022-10-23T09:20:34.434Z,96573.61
2022-10-23T09:23:12.435Z,96578.20
2022-10-23T09:25:41.813Z,96578.77
2022-10-23T09:28:20.559Z,96571.48
2022-10-23T09:30:50.473Z,96566.77
2022-10-23T09:33:28.263Z,96566.23
2022-10-23T09:36:02.762Z,96565.06
2022-10-23T09:38:36.949Z,96571.32
2022-10-23T09:41:20.042Z,96575.08
2022-10-23T09:43:59.465Z,96567.59
2022-10-23T09:46:41.353Z,96567.41
2022-10-23T09:49:17.024Z,96563.65
2022-10-23T09:52:02.914Z,96560.80
2022-10-23T09:54:33.749Z,96562.86
2022-10-23T09:57:24.646Z,96563.92
2022-10-23T09:59:55.829Z,96565.20
2022-10-23T10:02:35.858Z,96563.34
2022-10-23T10:05:42.513Z,96563.20
2022-10-23T10:08:39.107Z,96561.21
2022-10-23T10:11:26.047Z,96563.84
2022-10-23T10:14:22.414Z,96561.58
2022-10-23T10:17:18.554Z,96559.29
2022-10-23T10:20:07.036Z,96554.48
2022-10-23T10:22:50.779Z,96549.45
2022-10-23T10:25:47.488Z,96549.20
2022-10-23T10:28:19.043Z,96558.24
2022-10-23T10:31:19.902Z,96559.20
2022-10-23T10:34:06.074Z,96558.91
2022-10-23T10:36:55.374Z,96560.42
2022-10-23T10:39:48.205Z,96556.73
2022-10-23T10:42:42.893Z,96556.34
2022-10-23T10:45:20.137Z,96554.98
2022-10-23T10:48:11.229Z,96556.09
2022-10-23T10:51:06.728Z,96559.59
2022-10-23T10:53:56.045Z,96559.59
2022-10-23T10:56:30.477Z,96553.40
2022-10-23T10:59:04.084Z,96552.05
2022-10-23T11:02:04.498Z,96555.13
2022-10-23T11:04:40.862Z,96560.38
2022-10-23T11:07:14.564Z,96565.98
2022-10-23T11:09:44.601Z,96566.83
2022-10-23T11:12:22.078Z,96565.58
2022-10-23T11:14:51.043Z,96562.20
2022-10-23T11:17:37.290Z,96553.28
2022-10-23T11:20:39.971Z,96554.70
2022-10-23T11:23:33.916Z,96555.23
2022-10-23T11:26:19.704Z,96557.00
2022-10-23T11:29:13.479Z,96555.39
2022-10-23T11:31:53.539Z,96551.70
2022-10-23T11:34:32.229Z,96543.58
2022-10-23T11:37:01.726Z,96553.23
2022-10-23T11:39:32.398Z,96555.05
2022-10-23T11:42:06.960Z,96546.01
2022-10-23T11:44:34.724Z,96543.77
2022-10-23T11:47:05.981Z,96540.80
2022-10-23T11:49:33.972Z,96536.19
2022-10-23T11:52:05.497Z,96541.78
2022-10-23T11:54:33.560Z,96543.36
2022-10-23T11:57:19.676Z,96550.41
2022-10-23T11:59:47.426Z,96545.02
2022-10-23T12:02:21.254Z,96546.52
2022-10-23T12:04:52.468Z,96543.91
2022-10-23T12:07:54.591Z,96546.40
2022-10-23T12:10:46.057Z,96547.52
2022-10-23T12:13:36.524Z,96545.13
2022-10-23T12:16:07.588Z,96539.75
2022-10-23T12:18:57.049Z,96541.44
2022-10-23T12:21:28.536Z,96541.27
2022-10-23T12:24:26.965Z,96541.67
2022-10-23T12:27:21.062Z,96544.76
2022-10-23T12:29:57.058Z,96541.60
2022-10-23T12:32:33.629Z,96542.64
2022-10-23T12:35:13.662Z,96543.88
2022-10-23T12:37:55.146Z,96541.45
2022-10-23T12:40:29.906Z,96540.82
2022-10-23T12:43:00.929Z,96543.13
2022-10-23T12:45:41.682Z,96543.71
2022-10-23T12:48:22.534Z,96544.63
2022-10-23T12:50:53.537Z,96545.91
2022-10-23T12:53:23.592Z,96543.89
2022-10-23T12:55:54.683Z,96547.63
2022-10-23T12:58:30.650Z,96547.65
2022-10-23T13:01:07.772Z,96546.59
2022-10-23T13:03:36.186Z,96546.73
2022-10-23T13:06:06.154Z,96545.14
2022-10-23T13:08:40.440Z,96544.02
2022-10-23T13:11:43.797Z,96540.95
2022-10-23T13:14:14.095Z,96537.47
2022-10-23T13:16:41.968Z,96539.23
2022-10-23T13:19:23.903Z,96541.81
2022-10-23T13:21:51.730Z,96548.35
2022-10-23T13:24:21.998Z,96550.64
2022-10-23T13:26:49.932Z,96552.86
2022-10-23T13:29:34.801Z,96553.79
2022-10-23T13:32:13.137Z,96563.35
2022-10-23T13:35:03.620Z,96566.23
2022-10-23T13:37:38.333Z,96567.10
2022-10-23T13:40:19.767Z,96567.05
2022-10-23T13:42:52.547Z,96565.15
2022-10-23T13:45:24.396Z,96563.13
2022-10-23T13:47:52.780Z,96564.88
2022-10-23T13:50:20.768Z,96568.87
2022-10-23T13:52:48.880Z,96567.67
2022-10-23T13:55:23.935Z,96566.55
2022-10-23T13:57:52.112Z,96563.37
2022-10-23T14:00:20.145Z,96564.04
2022-10-23T14:02:48.095Z,96563.39
2022-10-23T14:05:16.057Z,96563.77
2022-10-23T14:07:44.082Z,96562.50
2022-10-23T14:10:12.293Z,96563.10
2022-10-23T14:12:44.512Z,96565.16
2022-10-23T14:15:13.019Z,96562.33
2022-10-23T14:17:40.937Z,96559.65
2022-10-23T14:20:09.489Z,96555.96
2022-10-23T14:22:37.379Z,96558.98
2022-10-23T14:25:06.135Z,96559.63
2022-10-23T14:27:34.272Z,96560.38
2022-10-23T14:30:02.474Z,96560.76
2022-10-23T14:32:30.760Z,96555.26
2022-10-23T14:34:58.650Z,96554.86
2022-10-23T14:37:26.656Z,96550.94
2022-10-23T14:39:54.587Z,96554.08
2022-10-23T14:42:22.593Z,96549.51
2022-10-23T14:44:50.509Z,96544.73
2022-10-23T14:47:23.799Z,96546.60
2022-10-23T14:49:53.195Z,96544.73
2022-10-23T14:52:21.021Z,96541.84
2022-10-23T14:54:51.291Z,96543.09
2022-10-23T14:57:21.720Z,96542.86
2022-10-23T14:59:50.174Z,96542.52
2022-10-23T15:02:18.081Z,96544.36
2022-10-23T15:04:46.060Z,96544.73
2022-10-23T15:07:13.912Z,96550.88
2022-10-23T15:09:41.790Z,96548.94
2022-10-23T15:12:09.659Z,96546.51
2022-10-23T15:14:37.472Z,96547.52
2022-10-23T15:17:05.501Z,96547.20
2022-10-23T15:19:33.399Z,96546.44
2022-10-23T15:22:01.306Z,96542.59
2022-10-23T15:24:29.081Z,96546.40
2022-10-23T15:26:57.204Z,96547.02
2022-10-23T15:29:25.066Z,96548.64
2022-10-23T15:31:57.152Z,96553.26
2022-10-23T15:34:27.335Z,96554.55
2022-10-23T15:36:57.934Z,96557.46
2022-10-23T15:39:28.696Z,96557.52
2022-10-23T15:41:57.299Z,96558.09
2022-10-23T15:44:28.549Z,96566.55
2022-10-23T15:47:00.016Z,96570.84
2022-10-23T15:49:31.906Z,96573.02
2022-10-23T15:52:00.272Z,96579.23
2022-10-23T15:54:30.653Z,96581.23
2022-10-23T15:57:01.879Z,96576.59
2022-10-23T15:59:31.983Z,96578.71
2022-10-23T16:02:00.027Z,96581.42
2022-10-23T16:04:28.786Z,96584.83
2022-10-23T16:06:57.276Z,96586.36
2022-10-23T16:09:25.093Z,96588.96
2022-10-23T16:11:53.092Z,96591.25
2022-10-23T16:14:20.965Z,96593.08
2022-10-23T16:16:48.784Z,96593.58
2022-10-23T16:19:16.738Z,96588.75
2022-10-23T16:21:44.547Z,96584.80
2022-10-23T16:24:12.548Z,96584.77
2022-10-23T16:26:41.084Z,96587.17
2022-10-23T16:29:09.379Z,96591.16
2022-10-23T16:31:37.766Z,96592.09
2022-10-23T16:34:06.819Z,96592.27
2022-10-23T16:36:34.963Z,96595.27
2022-10-23T16:39:38.332Z,96595.96
2022-10-23T16:42:24.762Z,96601.31
2022-10-23T16:45:09.607Z,96604.31
2022-10-23T16:47:37.414Z,96609.10
2022-10-23T16:50:06.126Z,96609.94
2022-10-23T16:52:35.209Z,96614.32
2022-10-23T16:55:03.053Z,96619.33
2022-10-23T16:57:30.967Z,96624.96
2022-10-23T16:59:59.085Z,96628.06
2022-10-23T17:02:27.392Z,96630.73
2022-10-23T17:04:55.348Z,96629.39
2022-10-23T17:07:24.372Z,96627.71
2022-10-23T17:09:52.294Z,96628.30
2022-10-23T17:12:20.175Z,96630.45
2022-10-23T17:14:48.102Z,96630.46
2022-10-23T17:17:16.220Z,96632.04
2022-10-23T17:19:45.659Z,96634.27
2022-10-23T17:22:15.510Z,96636.77
2022-10-23T17:24:47.394Z,96638.83
2022-10-23T17:27:18.862Z,96634.61
2022-10-23T17:29:47.068Z,96629.96
2022-10-23T17:32:15.033Z,96627.36
2022-10-23T17:34:42.966Z,96625.84
2022-10-23T17:37:13.378Z,96622.63
2022-10-23T17:39:41.624Z,96621.94
2022-10-23T17:42:09.613Z,96619.56
2022-10-23T17:44:37.610Z,96617.71
2022-10-23T17:47:05.488Z,96614.52
2022-10-23T17:49:52.831Z,96612.06
2022-10-23T17:52:20.680Z,96608.08
2022-10-23T17:54:52.329Z,96608.20
2022-10-23T17:57:20.320Z,96604.29
2022-10-23T17:59:48.371Z,96604.09
2022-10-23T18:02:16.317Z,96604.54
2022-10-23T18:04:44.417Z,96608.58
2022-10-23T18:07:13.238Z,96609.31
2022-10-23T18:09:41.613Z,96608.08
2022-10-23T18:12:09.757Z,96604.36
2022-10-23T18:14:37.919Z,96607.47
2022-10-23T18:17:05.742Z,96601.40
2022-10-23T18:19:33.859Z,96596.74
2022-10-23T18:22:03.110Z,96598.73
2022-10-23T18:24:31.555Z,96592.95
2022-10-23T18:27:01.619Z,96592.63
2022-10-23T18:29:29.569Z,96596.27
2022-10-23T18:31:57.613Z,96590.98
2022-10-23T18:34:26.115Z,96592.42
2022-10-23T18:36:55.409Z,96593.01
2022-10-23T18:39:25.062Z,96589.29
2022-10-23T18:43:14.790Z,96585.95
2022-10-23T18:45:47.877Z,96587.89
2022-10-23T18:48:17.195Z,96589.21
2022-10-23T18:50:45.187Z,96593.85
2022-10-23T18:53:53.288Z,96592.06
2022-10-23T18:56:23.710Z,96589.30
2022-10-23T18:58:53.747Z,96590.10
2022-10-23T19:01:23.448Z,96591.59
2022-10-23T19:03:51.635Z,96589.84
2022-10-23T19:06:20.920Z,96585.56
2022-10-23T19:08:49.783Z,96582.36
2022-10-23T19:11:20.737Z,96578.29
2022-10-23T19:13:48.641Z,96580.54
2022-10-23T19:16:18.124Z,96581.18
2022-10-23T19:18:50.573Z,96573.31
2022-10-23T19:21:22.076Z,96576.29
2022-10-23T19:23:51.584Z,96568.66
2022-10-23T19:26:19.592Z,96572.43
2022-10-23T19:28:49.311Z,96573.61
2022-10-23T19:31:17.351Z,96581.14
2022-10-23T19:33:45.460Z,96585.85
2022-10-23T19:36:14.423Z,96581.23
2022-10-23T19:38:42.637Z,96583.66
2022-10-23T19:41:11.159Z,96587.56
2022-10-23T19:43:39.080Z,96589.94
2022-10-23T19:46:10.966Z,96591.02
2022-10-23T19:48:45.095Z,96588.23
2022-10-23T19:51:13.632Z,96591.83
2022-10-23T19:53:42.816Z,96593.95
2022-10-23T19:56:12.346Z,96600.41
2022-10-23T19:58:40.895Z,96594.23
2022-10-23T20:01:18.031Z,96591.60
2022-10-23T20:03:48.835Z,96590.23
2022-10-23T20:06:20.080Z,96593.27
2022-10-23T20:08:48.169Z,96592.92
2022-10-23T20:11:28.689Z,96587.60
2022-10-23T20:13:58.195Z,96585.18
2022-10-23T20:16:31.164Z,96582.31
2022-10-23T20:19:01.349Z,96578.51
2022-10-23T20:21:29.763Z,96579.52
2022-10-23T20:23:58.876Z,96580.04
2022-10-23T20:26:26.840Z,96579.17
2022-10-23T20:28:56.743Z,96572.83
2022-10-23T20:31:27.025Z,96568.35
2022-10-23T20:33:56.333Z,96572.60
2022-10-23T20:36:49.528Z,96575.39
2022-10-23T20:39:46.752Z,96570.39
2022-10-23T20:42:16.354Z,96574.17
2022-10-23T20:45:13.067Z,96579.67
2022-10-23T20:47:41.337Z,96578.09
2022-10-23T20:50:10.086Z,96578.16
2022-10-23T20:52:38.255Z,96572.59
2022-10-23T20:55:06.552Z,96573.44
2022-10-23T20:57:35.159Z,96573.27
2022-10-23T21:00:05.601Z,96574.90
2022-10-23T21:02:33.926Z,96581.45
2022-10-23T21:05:02.369Z,96579.30
2022-10-23T21:07:31.482Z,96580.15
2022-10-23T21:09:59.513Z,96571.92
2022-10-23T21:12:27.583Z,96568.38
2022-10-23T21:14:55.701Z,96564.83
2022-10-23T21:17:23.564Z,96564.31
2022-10-23T21:19:51.514Z,96558.71
2022-10-23T21:23:09.750Z,96552.78
2022-10-23T21:25:41.947Z,96549.27
2022-10-23T21:28:11.211Z,96547.16
2022-10-23T21:30:41.573Z,96540.60
2022-10-23T21:33:09.640Z,96531.33
2022-10-23T21:35:43.205Z,96526.62
2022-10-23T21:38:20.859Z,96519.40
2022-10-23T21:40:50.404Z,96522.50
2022-10-23T21:43:19.360Z,96527.60
2022-10-23T21:45:47.336Z,96538.54
2022-10-23T21:48:15.280Z,96558.03
2022-10-23T21:50:43.256Z,96563.50
2022-10-23T21:53:11.069Z,96560.77
2022-10-23T21:55:39.204Z,96555.91
2022-10-23T21:58:07.114Z,96550.44
2022-10-23T22:00:34.948Z,96544.52
2022-10-23T22:03:02.911Z,96535.59
2022-10-23T22:05:31.441Z,96535.19
2022-10-23T22:07:59.624Z,96529.55
2022-10-23T22:10:27.733Z,96532.90
2022-10-23T22:12:55.977Z,96535.75
2022-10-23T22:15:23.872Z,96536.80
2022-10-23T22:17:52.060Z,96534.59
2022-10-23T22:20:19.926Z,96538.11
2022-10-23T22:22:47.958Z,96544.17
2022-10-23T22:25:21.496Z,96554.98
2022-10-23T22:27:59.853Z,96556.95
2022-10-23T22:30:27.648Z,96559.71
2022-10-23T22:32:55.533Z,96562.00
2022-10-23T22:35:23.477Z,96565.69
2022-10-23T22:37:51.313Z,96565.14
2022-10-23T22:40:19.292Z,96560.35
2022-10-23T22:42:47.314Z,96565.11
2022-10-23T22:45:15.473Z,96563.50
2022-10-23T22:47:43.458Z,96559.80
2022-10-23T22:50:11.386Z,96549.60
2022-10-23T22:52:39.270Z,96545.13
2022-10-23T22:55:08.697Z,96548.71
2022-10-23T22:57:36.533Z,96551.87
2022-10-23T23:00:07.049Z,96551.23
2022-10-23T23:02:34.955Z,96552.92
2022-10-23T23:05:03.152Z,96554.40
2022-10-23T23:07:31.027Z,96554.91
2022-10-23T23:09:58.849Z,96553.98
2022-10-23T23:12:26.676Z,96554.48
2022-10-23T23:14:54.662Z,96558.86
2022-10-23T23:17:23.138Z,96558.75
2022-10-23T23:19:51.074Z,96558.23
2022-10-23T23:22:19.381Z,96552.94
2022-10-23T23:24:47.299Z,96549.84
2022-10-23T23:27:15.325Z,96543.04
2022-10-23T23:29:43.366Z,96541.62
2022-10-23T23:32:11.385Z,96540.42
2022-10-23T23:34:39.337Z,96540.05
2022-10-23T23:37:07.538Z,96540.72
2022-10-23T23:39:35.564Z,96538.60
2022-10-23T23:42:04.361Z,96541.08
2022-10-23T23:44:32.409Z,96539.70
2022-10-23T23:47:00.674Z,96537.42
2022-10-23T23:49:28.603Z,96541.23
2022-10-23T23:51:56.551Z,96544.41
2022-10-23T23:54:24.649Z,96540.96
2022-10-23T23:56:56.366Z,96536.71
2022-10-23T23:59:24.230Z,96535.92
